createdAt,value
2019-01-19T00:01:08.821Z,18.03
2019-01-19T00:04:31.657Z,17.57
2019-01-19T00:07:37.999Z,18.07
2019-01-19T00:10:44.944Z,18.73
2019-01-19T00:13:51.502Z,17.07
2019-01-19T00:16:58.859Z,17.60
2019-01-19T00:20:00.981Z,17.33
2019-01-19T00:23:00.224Z,17.20
2019-01-19T00:26:12.361Z,17.13
2019-01-19T00:28:49.954Z,17.50
2019-01-19T00:31:54.945Z,17.27
2019-01-19T00:35:06.658Z,17.80
2019-01-19T00:37:58.604Z,17.23
2019-01-19T00:41:14.225Z,18.07
2019-01-19T00:43:51.147Z,16.87
2019-01-19T00:46:57.725Z,17.40
2019-01-19T00:49:37.889Z,16.87
2019-01-19T00:52:26.009Z,16.07
2019-01-19T00:55:38.667Z,17.30
2019-01-19T00:58:33.390Z,17.13
2019-01-19T01:01:50.237Z,16.17
2019-01-19T01:04:55.195Z,16.13
2019-01-19T01:08:10.851Z,15.93
2019-01-19T01:10:54.409Z,15.60
2019-01-19T01:14:03.752Z,15.23
2019-01-19T01:17:02.680Z,15.37
2019-01-19T01:19:59.329Z,16.03
2019-01-19T01:22:56.194Z,15.87
2019-01-19T01:26:18.143Z,16.77
2019-01-19T01:29:31.355Z,15.17
2019-01-19T01:32:14.779Z,14.33
2019-01-19T01:35:22.239Z,14.40
2019-01-19T01:38:14.942Z,14.47
2019-01-19T01:41:19.938Z,14.87
2019-01-19T01:44:30.139Z,14.07
2019-01-19T01:47:54.435Z,14.67
2019-01-19T01:51:01.092Z,13.67
2019-01-19T01:54:01.435Z,14.27
2019-01-19T01:56:31.151Z,14.43
2019-01-19T01:59:12.819Z,13.97
2019-01-19T02:02:16.444Z,13.87
2019-01-19T02:05:25.238Z,13.30
2019-01-19T02:08:24.052Z,13.80
2019-01-19T02:11:24.678Z,13.20
2019-01-19T02:14:27.988Z,12.93
2019-01-19T02:17:53.939Z,14.60
2019-01-19T02:20:38.896Z,14.27
2019-01-19T02:23:45.585Z,14.40
2019-01-19T02:27:01.514Z,14.10
2019-01-19T02:29:56.099Z,13.40
2019-01-19T02:33:03.529Z,13.30
2019-01-19T02:36:12.832Z,14.70
2019-01-19T02:39:27.267Z,13.37
2019-01-19T02:42:33.350Z,12.90
2019-01-19T02:45:37.416Z,14.53
2019-01-19T02:48:51.861Z,13.17
2019-01-19T02:51:56.642Z,12.87
2019-01-19T02:55:22.596Z,12.77
2019-01-19T02:58:27.830Z,13.50
2019-01-19T03:01:37.387Z,13.40
2019-01-19T03:04:56.971Z,13.50
2019-01-19T03:07:44.516Z,13.37
2019-01-19T03:10:47.836Z,12.77
2019-01-19T03:13:47.890Z,11.87
2019-01-19T03:17:13.857Z,13.27
2019-01-19T03:20:17.711Z,12.47
2019-01-19T03:23:13.781Z,12.03
2019-01-19T03:26:11.321Z,11.73
2019-01-19T03:29:20.757Z,12.23
2019-01-19T03:32:25.909Z,12.23
2019-01-19T03:35:27.993Z,12.33
2019-01-19T03:38:40.311Z,12.77
2019-01-19T03:41:49.518Z,12.23
2019-01-19T03:45:21.041Z,12.17
2019-01-19T03:48:06.411Z,12.93
2019-01-19T03:51:22.069Z,12.83
2019-01-19T03:53:56.757Z,12.40
2019-01-19T03:56:49.131Z,12.17
2019-01-19T03:59:56.231Z,12.60
2019-01-19T04:03:01.287Z,12.43
2019-01-19T04:06:12.604Z,12.33
2019-01-19T04:09:16.050Z,12.30
2019-01-19T04:12:53.756Z,11.47
2019-01-19T04:15:58.901Z,12.53
2019-01-19T04:18:59.639Z,12.47
2019-01-19T04:22:08.419Z,12.40
2019-01-19T04:25:24.630Z,12.63
2019-01-19T04:27:53.939Z,12.47
2019-01-19T04:30:22.973Z,12.33
2019-01-19T04:32:52.141Z,13.40
2019-01-19T04:35:21.701Z,13.07
2019-01-19T04:37:51.121Z,12.13
2019-01-19T04:40:20.143Z,12.53
2019-01-19T04:42:49.449Z,12.93
2019-01-19T04:45:18.516Z,12.43
2019-01-19T04:47:48.825Z,12.07
2019-01-19T04:50:18.320Z,11.77
2019-01-19T04:52:47.765Z,12.07
2019-01-19T04:55:16.771Z,11.93
2019-01-19T04:57:46.957Z,12.90
2019-01-19T05:00:18.215Z,12.40
2019-01-19T05:02:48.832Z,12.90
2019-01-19T05:05:17.855Z,10.63
2019-01-19T05:07:46.865Z,11.07
2019-01-19T05:10:16.898Z,11.93
2019-01-19T05:12:46.505Z,11.50
2019-01-19T05:15:20.763Z,11.67
2019-01-19T05:17:50.681Z,11.20
2019-01-19T05:20:19.972Z,11.33
2019-01-19T05:22:49.119Z,11.20
2019-01-19T05:25:18.532Z,10.93
2019-01-19T05:27:47.919Z,12.00
2019-01-19T05:30:19.779Z,11.13
2019-01-19T05:32:48.909Z,12.03
2019-01-19T05:35:17.991Z,11.73
2019-01-19T05:37:47.419Z,12.97
2019-01-19T05:40:16.522Z,11.30
2019-01-19T05:42:45.984Z,11.47
2019-01-19T05:45:16.042Z,12.03
2019-01-19T05:47:45.098Z,12.13
2019-01-19T05:50:17.106Z,12.07
2019-01-19T05:52:46.357Z,11.83
2019-01-19T05:55:15.802Z,11.47
2019-01-19T05:57:44.845Z,11.30
2019-01-19T06:00:19.901Z,12.10
2019-01-19T06:02:49.333Z,10.83
2019-01-19T06:05:18.935Z,11.57
2019-01-19T06:07:48.717Z,11.37
2019-01-19T06:10:18.330Z,11.80
2019-01-19T06:12:47.375Z,11.53
2019-01-19T06:15:16.909Z,11.47
2019-01-19T06:17:45.939Z,11.83
2019-01-19T06:20:15.975Z,12.67
2019-01-19T06:22:45.472Z,11.97
2019-01-19T06:25:15.642Z,12.43
2019-01-19T06:27:45.095Z,12.47
2019-01-19T06:30:19.914Z,12.73
2019-01-19T06:32:49.095Z,12.37
2019-01-19T06:35:18.250Z,12.50
2019-01-19T06:37:47.989Z,11.80
2019-01-19T06:40:18.051Z,12.47
2019-01-19T06:42:47.241Z,12.40
2019-01-19T06:45:21.795Z,12.20
2019-01-19T06:47:50.907Z,11.47
2019-01-19T06:50:19.905Z,12.07
2019-01-19T06:52:49.265Z,12.43
2019-01-19T06:55:20.881Z,12.20
2019-01-19T06:57:50.315Z,12.17
2019-01-19T07:00:20.486Z,12.23
2019-01-19T07:02:49.564Z,11.43
2019-01-19T07:05:18.623Z,12.73
2019-01-19T07:07:48.630Z,11.50
2019-01-19T07:10:19.872Z,11.77
2019-01-19T07:12:48.873Z,12.67
2019-01-19T07:15:17.931Z,12.30
2019-01-19T07:17:47.031Z,11.70
2019-01-19T07:20:22.031Z,12.23
2019-01-19T07:22:51.060Z,11.27
2019-01-19T07:25:20.457Z,12.37
2019-01-19T07:27:49.889Z,12.07
2019-01-19T07:30:19.695Z,11.70
2019-01-19T07:32:48.841Z,12.50
2019-01-19T07:35:17.972Z,11.77
2019-01-19T07:37:47.019Z,11.20
2019-01-19T07:40:17.161Z,11.60
2019-01-19T07:42:47.126Z,11.10
2019-01-19T07:45:17.183Z,10.77
2019-01-19T07:47:46.284Z,10.80
2019-01-19T07:50:16.972Z,11.30
2019-01-19T07:52:46.460Z,10.93
2019-01-19T07:55:16.555Z,11.90
2019-01-19T07:57:45.979Z,11.60
2019-01-19T08:00:26.654Z,11.37
2019-01-19T08:02:56.057Z,11.03
2019-01-19T08:05:25.076Z,11.70
2019-01-19T08:07:54.193Z,10.80
2019-01-19T08:10:23.657Z,10.93
2019-01-19T08:12:52.971Z,10.53
2019-01-19T08:15:23.984Z,10.57
2019-01-19T08:17:52.984Z,10.17
2019-01-19T08:20:22.232Z,10.87
2019-01-19T08:22:51.795Z,10.03
2019-01-19T08:25:20.980Z,10.20
2019-01-19T08:27:50.088Z,10.83
2019-01-19T08:30:22.541Z,13.03
2019-01-19T08:32:51.855Z,10.67
2019-01-19T08:35:21.022Z,11.27
2019-01-19T08:37:50.953Z,11.03
2019-01-19T08:40:25.442Z,11.83
2019-01-19T08:43:07.991Z,11.40
2019-01-19T08:45:37.147Z,12.20
2019-01-19T08:48:06.468Z,12.40
2019-01-19T08:50:35.607Z,10.80
2019-01-19T08:53:04.999Z,10.67
2019-01-19T08:55:34.315Z,10.13
2019-01-19T08:58:03.359Z,11.20
2019-01-19T09:00:32.397Z,9.77
2019-01-19T09:03:01.563Z,11.13
2019-01-19T09:05:30.655Z,10.40
2019-01-19T09:07:59.787Z,9.60
2019-01-19T09:10:28.851Z,10.70
2019-01-19T09:12:58.327Z,9.37
2019-01-19T09:15:27.345Z,10.30
2019-01-19T09:17:56.712Z,9.73
2019-01-19T09:20:25.772Z,9.70
2019-01-19T09:22:59.467Z,9.83
2019-01-19T09:25:28.855Z,10.03
2019-01-19T09:27:58.911Z,10.90
2019-01-19T09:30:28.096Z,11.10
2019-01-19T09:32:57.694Z,10.47
2019-01-19T09:35:27.335Z,10.33
2019-01-19T09:37:56.421Z,10.93
2019-01-19T09:40:25.931Z,10.57
2019-01-19T09:42:54.988Z,10.63
2019-01-19T09:45:24.049Z,10.60
2019-01-19T09:47:53.097Z,10.80
2019-01-19T09:50:22.781Z,9.60
2019-01-19T09:52:52.544Z,9.97
2019-01-19T09:55:22.907Z,9.80
2019-01-19T09:57:51.931Z,8.90
2019-01-19T10:00:22.114Z,9.07
2019-01-19T10:02:51.144Z,9.40
2019-01-19T10:05:21.667Z,9.73
2019-01-19T10:07:50.731Z,10.57
2019-01-19T10:10:19.724Z,9.97
2019-01-19T10:12:49.078Z,10.13
2019-01-19T10:15:18.182Z,9.27
2019-01-19T10:17:47.621Z,9.40
2019-01-19T10:20:19.206Z,9.00
2019-01-19T10:22:48.649Z,9.93
2019-01-19T10:25:18.172Z,9.17
2019-01-19T10:27:47.173Z,8.93
2019-01-19T10:30:18.589Z,8.10
2019-01-19T10:32:47.693Z,8.30
2019-01-19T10:35:16.977Z,9.03
2019-01-19T10:37:46.061Z,8.60
2019-01-19T10:40:15.674Z,8.43
2019-01-19T10:42:45.258Z,8.07
2019-01-19T10:45:16.932Z,7.90
2019-01-19T10:47:46.370Z,8.73
2019-01-19T10:50:16.332Z,8.17
2019-01-19T10:52:45.384Z,8.87
2019-01-19T10:55:18.878Z,8.23
2019-01-19T10:57:48.283Z,8.20
2019-01-19T11:00:19.899Z,8.60
2019-01-19T11:02:48.921Z,8.30
2019-01-19T11:05:17.962Z,8.80
2019-01-19T11:07:48.078Z,8.17
2019-01-19T11:10:19.360Z,7.80
2019-01-19T11:12:48.382Z,8.90
2019-01-19T11:15:18.158Z,9.33
2019-01-19T11:17:47.422Z,9.10
2019-01-19T11:20:18.838Z,8.90
2019-01-19T11:22:48.476Z,8.80
2019-01-19T11:25:17.578Z,9.40
2019-01-19T11:27:47.086Z,8.77
2019-01-19T11:30:21.652Z,9.13
2019-01-19T11:32:51.028Z,8.70
2019-01-19T11:35:20.476Z,8.83
2019-01-19T11:37:49.511Z,8.53
2019-01-19T11:40:27.234Z,8.80
2019-01-19T11:42:57.795Z,8.27
2019-01-19T11:45:26.910Z,9.03
2019-01-19T11:47:55.974Z,8.57
2019-01-19T11:50:25.332Z,9.17
2019-01-19T11:52:54.396Z,8.30
2019-01-19T11:55:24.416Z,8.83
2019-01-19T11:57:59.294Z,9.13
2019-01-19T12:00:29.870Z,8.57
2019-01-19T12:02:58.882Z,8.60
2019-01-19T12:05:27.943Z,8.77
2019-01-19T12:07:56.978Z,9.20
2019-01-19T12:10:28.060Z,9.43
2019-01-19T12:12:57.672Z,8.83
2019-01-19T12:15:27.286Z,9.00
2019-01-19T12:17:56.406Z,9.23
2019-01-19T12:20:37.420Z,8.87
2019-01-19T12:23:07.624Z,8.70
2019-01-19T12:25:36.706Z,8.77
2019-01-19T12:28:05.940Z,9.40
2019-01-19T12:30:35.309Z,8.47
2019-01-19T12:33:04.702Z,8.80
2019-01-19T12:35:33.940Z,8.90
2019-01-19T12:38:03.318Z,8.40
2019-01-19T12:40:32.332Z,8.80
2019-01-19T12:43:04.157Z,8.50
2019-01-19T12:45:39.889Z,9.50
2019-01-19T12:48:09.327Z,8.87
2019-01-19T12:50:38.425Z,8.90
2019-01-19T12:53:08.135Z,9.17
2019-01-19T12:55:37.274Z,7.90
2019-01-19T12:58:07.676Z,7.33
2019-01-19T13:00:37.057Z,9.00
2019-01-19T13:03:07.982Z,8.87
2019-01-19T13:05:54.036Z,7.80
2019-01-19T13:08:24.054Z,7.80
2019-01-19T13:11:07.966Z,8.20
2019-01-19T13:13:45.030Z,7.80
2019-01-19T13:17:09.426Z,8.60
2019-01-19T13:19:57.466Z,9.03
2019-01-19T13:23:02.800Z,8.70
2019-01-19T13:26:19.163Z,9.17
2019-01-19T13:29:27.853Z,9.23
2019-01-19T13:32:28.875Z,8.87
2019-01-19T13:35:44.778Z,9.57
2019-01-19T13:38:48.995Z,8.13
2019-01-19T13:41:59.154Z,8.30
2019-01-19T13:44:46.992Z,8.80
2019-01-19T13:47:51.937Z,8.87
2019-01-19T13:50:58.268Z,9.13
2019-01-19T13:53:41.518Z,8.47
2019-01-19T13:56:38.898Z,8.13
2019-01-19T13:59:24.368Z,8.43
2019-01-19T14:02:20.304Z,8.70
2019-01-19T14:05:04.344Z,9.87
2019-01-19T14:08:03.383Z,8.17
2019-01-19T14:11:16.745Z,8.63
2019-01-19T14:14:10.686Z,8.67
2019-01-19T14:17:17.002Z,8.33
2019-01-19T14:20:05.934Z,8.73
2019-01-19T14:23:11.312Z,8.13
2019-01-19T14:26:27.979Z,8.60
2019-01-19T14:29:38.254Z,8.00
2019-01-19T14:32:57.626Z,8.17
2019-01-19T14:35:53.945Z,8.73
2019-01-19T14:39:06.608Z,8.37
2019-01-19T14:42:06.345Z,8.63
2019-01-19T14:45:20.324Z,9.07
2019-01-19T14:48:35.116Z,8.60
2019-01-19T14:51:28.880Z,9.13
2019-01-19T14:54:24.964Z,9.50
2019-01-19T14:57:18.170Z,9.30
2019-01-19T15:00:31.554Z,9.73
2019-01-19T15:03:32.797Z,8.80
2019-01-19T15:06:44.495Z,9.30
2019-01-19T15:10:03.983Z,8.67
2019-01-19T15:12:59.990Z,8.50
2019-01-19T15:16:04.426Z,8.37
2019-01-19T15:19:33.022Z,9.30
2019-01-19T15:22:43.124Z,8.50
2019-01-19T15:25:59.522Z,9.53
2019-01-19T15:29:21.106Z,9.33
2019-01-19T15:32:26.039Z,10.07
2019-01-19T15:35:30.988Z,9.70
2019-01-19T15:38:22.277Z,9.37
2019-01-19T15:41:09.290Z,8.40
2019-01-19T15:44:09.944Z,8.43
2019-01-19T15:47:22.234Z,9.20
2019-01-19T15:50:16.011Z,9.93
2019-01-19T15:53:09.753Z,8.70
2019-01-19T15:56:02.556Z,8.60
2019-01-19T15:58:59.389Z,9.63
2019-01-19T16:02:06.936Z,9.87
2019-01-19T16:05:06.324Z,9.10
2019-01-19T16:08:25.685Z,9.10
2019-01-19T16:11:36.167Z,9.63
2019-01-19T16:14:57.390Z,8.80
2019-01-19T16:17:56.523Z,8.60
2019-01-19T16:20:51.990Z,8.63
2019-01-19T16:23:47.886Z,8.27
2019-01-19T16:26:37.204Z,9.40
2019-01-19T16:29:43.427Z,8.53
2019-01-19T16:32:36.720Z,8.77
2019-01-19T16:35:45.830Z,8.30
2019-01-19T16:38:37.911Z,8.10
2019-01-19T16:41:53.714Z,8.47
2019-01-19T16:45:07.979Z,7.97
2019-01-19T16:48:22.848Z,7.37
2019-01-19T16:51:32.248Z,7.87
2019-01-19T16:54:16.547Z,7.73
2019-01-19T16:57:28.232Z,9.20
2019-01-19T17:01:02.574Z,9.47
2019-01-19T17:04:28.214Z,9.47
2019-01-19T17:07:45.638Z,9.13
2019-01-19T17:10:59.076Z,8.40
2019-01-19T17:14:12.029Z,8.83
2019-01-19T17:17:03.828Z,9.23
2019-01-19T17:20:07.303Z,8.40
2019-01-19T17:23:16.568Z,9.17
2019-01-19T17:26:29.365Z,8.70
2019-01-19T17:29:09.242Z,9.10
2019-01-19T17:32:04.358Z,9.30
2019-01-19T17:35:10.477Z,9.43
2019-01-19T17:38:16.393Z,10.00
2019-01-19T17:41:21.103Z,9.57
2019-01-19T17:44:00.304Z,10.37
2019-01-19T17:47:05.175Z,10.93
2019-01-19T17:49:56.649Z,9.43
2019-01-19T17:52:51.634Z,9.90
2019-01-19T17:55:57.678Z,11.10
2019-01-19T17:59:03.672Z,10.37
2019-01-19T18:02:14.035Z,10.57
2019-01-19T18:05:36.294Z,12.07
2019-01-19T18:09:02.159Z,11.60
2019-01-19T18:11:50.858Z,12.70
2019-01-19T18:14:52.610Z,11.70
2019-01-19T18:17:43.386Z,11.87
2019-01-19T18:20:50.618Z,13.03
2019-01-19T18:24:01.398Z,13.27
2019-01-19T18:27:27.012Z,14.03
2019-01-19T18:30:43.570Z,13.20
2019-01-19T18:33:38.194Z,13.17
2019-01-19T18:36:41.883Z,13.80
2019-01-19T18:39:58.176Z,13.33
2019-01-19T18:43:15.075Z,12.70
2019-01-19T18:46:18.831Z,13.47
2019-01-19T18:49:25.063Z,13.77
2019-01-19T18:52:35.532Z,14.77
2019-01-19T18:55:19.444Z,14.90
2019-01-19T18:58:36.435Z,14.40
2019-01-19T19:01:58.727Z,14.37
2019-01-19T19:04:46.314Z,15.60
2019-01-19T19:07:40.594Z,14.30
2019-01-19T19:10:55.998Z,13.97
2019-01-19T19:13:51.680Z,15.30
2019-01-19T19:17:05.022Z,15.00
2019-01-19T19:20:11.592Z,14.87
2019-01-19T19:23:19.543Z,14.60
2019-01-19T19:26:21.435Z,15.47
2019-01-19T19:29:46.626Z,15.13
2019-01-19T19:32:41.521Z,14.60
2019-01-19T19:35:50.931Z,15.00
2019-01-19T19:38:55.794Z,15.13
2019-01-19T19:42:03.151Z,14.60
2019-01-19T19:45:13.554Z,14.47
2019-01-19T19:48:10.743Z,14.97
2019-01-19T19:51:24.923Z,15.63
2019-01-19T19:53:54.334Z,15.70
2019-01-19T19:56:21.788Z,17.17
2019-01-19T19:58:50.808Z,15.93
2019-01-19T20:01:19.856Z,15.93
2019-01-19T20:03:49.248Z,15.73
2019-01-19T20:06:18.593Z,15.60
2019-01-19T20:08:47.625Z,17.00
2019-01-19T20:11:16.668Z,16.77
2019-01-19T20:13:45.726Z,16.73
2019-01-19T20:16:15.190Z,15.73
2019-01-19T20:18:44.238Z,16.30
2019-01-19T20:21:13.271Z,15.40
2019-01-19T20:23:42.329Z,16.40
2019-01-19T20:26:12.202Z,16.07
2019-01-19T20:28:41.552Z,15.10
2019-01-19T20:31:10.898Z,15.43
2019-01-19T20:33:40.317Z,15.97
2019-01-19T20:36:09.368Z,15.93
2019-01-19T20:38:38.405Z,16.33
2019-01-19T20:41:07.437Z,15.90
2019-01-19T20:43:36.808Z,14.90
2019-01-19T20:46:06.711Z,15.43
2019-01-19T20:48:35.933Z,15.03
2019-01-19T20:51:05.013Z,15.20
2019-01-19T20:53:34.107Z,14.20
2019-01-19T20:56:03.128Z,14.17
2019-01-19T20:58:32.150Z,15.60
2019-01-19T21:01:01.245Z,13.83
2019-01-19T21:03:30.321Z,15.73
2019-01-19T21:05:59.651Z,14.87
2019-01-19T21:08:28.780Z,14.93
2019-01-19T21:10:57.808Z,15.10
2019-01-19T21:13:26.874Z,14.47
2019-01-19T21:15:56.268Z,14.13
2019-01-19T21:18:25.696Z,13.77
2019-01-19T21:20:55.046Z,14.57
2019-01-19T21:23:24.398Z,15.07
2019-01-19T21:25:53.432Z,15.07
2019-01-19T21:28:22.464Z,15.63
2019-01-19T21:30:51.540Z,15.07
2019-01-19T21:33:20.642Z,14.80
2019-01-19T21:35:49.885Z,14.47
2019-01-19T21:38:18.983Z,15.10
2019-01-19T21:40:48.025Z,14.77
2019-01-19T21:43:17.077Z,14.40
2019-01-19T21:45:46.081Z,15.30
2019-01-19T21:48:15.316Z,15.37
2019-01-19T21:50:44.713Z,14.90
2019-01-19T21:53:13.765Z,15.00
2019-01-19T21:55:43.136Z,15.17
2019-01-19T21:58:12.167Z,15.10
2019-01-19T22:00:41.191Z,14.40
2019-01-19T22:03:10.631Z,15.47
2019-01-19T22:05:40.016Z,14.70
2019-01-19T22:08:09.081Z,15.90
2019-01-19T22:10:46.155Z,15.00
2019-01-19T22:13:10.598Z,15.57
2019-01-19T22:15:39.629Z,15.83
2019-01-19T22:18:09.007Z,15.43
2019-01-19T22:20:38.087Z,16.03
2019-01-19T22:23:07.487Z,14.73
2019-01-19T22:25:36.542Z,14.63
2019-01-19T22:28:06.017Z,15.30
2019-01-19T22:30:35.087Z,15.37
2019-01-19T22:33:04.136Z,14.43
2019-01-19T22:35:33.142Z,12.97
2019-01-19T22:38:02.261Z,14.17
2019-01-19T22:40:31.366Z,14.73
2019-01-19T22:43:03.368Z,13.40
2019-01-19T22:45:32.485Z,14.47
2019-01-19T22:48:02.314Z,13.43
2019-01-19T22:50:31.631Z,14.33
2019-01-19T22:53:00.843Z,14.23
2019-01-19T22:55:29.974Z,14.27
2019-01-19T22:57:59.409Z,14.23
2019-01-19T23:00:58.102Z,12.90
2019-01-19T23:03:28.305Z,14.07
2019-01-19T23:05:57.336Z,12.90
2019-01-19T23:08:26.967Z,13.50
2019-01-19T23:11:01.143Z,13.37
2019-01-19T23:13:27.084Z,13.23
2019-01-19T23:15:56.129Z,14.23
2019-01-19T23:18:25.480Z,14.50
2019-01-19T23:20:54.778Z,13.03
2019-01-19T23:23:23.803Z,14.93
2019-01-19T23:25:52.832Z,14.63
2019-01-19T23:28:22.193Z,15.33
2019-01-19T23:30:54.012Z,14.60
2019-01-19T23:33:23.343Z,15.50
2019-01-19T23:35:53.053Z,15.17
2019-01-19T23:38:22.873Z,14.83
2019-01-19T23:40:52.410Z,14.53
2019-01-19T23:43:21.795Z,14.90
2019-01-19T23:45:52.119Z,15.03
2019-01-19T23:48:21.251Z,14.80
2019-01-19T23:50:50.643Z,15.20
2019-01-19T23:53:20.029Z,15.70
2019-01-19T23:55:53.271Z,14.07
2019-01-19T23:58:22.300Z,15.40
